createdAt,value
2024-03-13T00:00:44.324Z,96487.59
2024-03-13T00:03:11.207Z,96503.41
2024-03-13T00:05:38.076Z,96491.09
2024-03-13T00:08:07.113Z,96494.59
2024-03-13T00:10:33.958Z,96508.28
2024-03-13T00:13:00.976Z,96512.09
2024-03-13T00:15:27.838Z,96505.16
2024-03-13T00:17:54.626Z,96504.63
2024-03-13T00:20:21.576Z,96504.91
2024-03-13T00:22:49.553Z,96503.59
2024-03-13T00:25:16.630Z,96492.56
2024-03-13T00:27:47.078Z,96505.19
2024-03-13T00:30:14.476Z,96484.50
2024-03-13T00:32:41.456Z,96497.09
2024-03-13T00:35:08.625Z,96492.88
2024-03-13T00:37:35.992Z,96487.72
2024-03-13T00:40:04.531Z,96493.59
2024-03-13T00:42:31.405Z,96495.84
2024-03-13T00:44:59.135Z,96494.31
2024-03-13T00:47:25.934Z,96476.97
2024-03-13T00:49:55.381Z,96494.69
2024-03-13T00:52:23.820Z,96488.25
2024-03-13T00:54:52.272Z,96497.19
2024-03-13T00:57:20.237Z,96488.09
2024-03-13T00:59:47.959Z,96496.16
2024-03-13T01:02:15.223Z,96494.34
2024-03-13T01:04:44.340Z,96487.34
2024-03-13T01:07:11.627Z,96483.56
2024-03-13T01:09:39.780Z,96486.28
2024-03-13T01:12:07.707Z,96479.38
2024-03-13T01:14:34.870Z,96491.22
2024-03-13T01:17:03.958Z,96482.94
2024-03-13T01:19:37.731Z,96465.19
2024-03-13T01:22:07.101Z,96464.66
2024-03-13T01:24:34.604Z,96441.34
2024-03-13T01:27:01.836Z,96467.31
2024-03-13T01:29:28.744Z,96478.34
2024-03-13T01:31:58.224Z,96472.34
2024-03-13T01:34:28.508Z,96477.25
2024-03-13T01:37:14.097Z,96460.13
2024-03-13T01:39:41.161Z,96472.75
2024-03-13T01:42:26.907Z,96475.69
2024-03-13T01:45:29.670Z,96476.47
2024-03-13T01:48:17.966Z,96480.00
2024-03-13T01:51:07.423Z,96460.59
2024-03-13T01:53:56.769Z,96461.13
2024-03-13T01:56:28.699Z,96472.94
2024-03-13T01:59:21.121Z,96468.63
2024-03-13T02:02:06.984Z,96466.22
2024-03-13T02:04:36.836Z,96462.22
2024-03-13T02:07:04.893Z,96454.44
2024-03-13T02:09:32.359Z,96464.34
2024-03-13T02:11:59.095Z,96462.44
2024-03-13T02:14:29.547Z,96464.34
2024-03-13T02:16:57.317Z,96464.06
2024-03-13T02:19:27.291Z,96463.84
2024-03-13T02:22:01.014Z,96452.00
2024-03-13T02:24:28.006Z,96447.66
2024-03-13T02:26:55.081Z,96458.16
2024-03-13T02:29:22.265Z,96459.25
2024-03-13T02:31:49.104Z,96452.81
2024-03-13T02:34:18.019Z,96455.47
2024-03-13T02:36:45.147Z,96459.75
2024-03-13T02:39:12.001Z,96431.31
2024-03-13T02:41:39.306Z,96446.81
2024-03-13T02:44:07.406Z,96451.91
2024-03-13T02:46:34.142Z,96435.28
2024-03-13T02:49:01.033Z,96446.00
2024-03-13T02:51:28.028Z,96444.91
2024-03-13T02:53:54.747Z,96442.22
2024-03-13T02:56:21.541Z,96444.63
2024-03-13T02:58:49.977Z,96446.50
2024-03-13T03:01:17.545Z,96445.47
2024-03-13T03:03:44.503Z,96443.31
2024-03-13T03:06:11.567Z,96443.59
2024-03-13T03:08:41.520Z,96444.38
2024-03-13T03:11:08.286Z,96452.75
2024-03-13T03:13:35.033Z,96439.63
2024-03-13T03:16:01.973Z,96439.84
2024-03-13T03:18:28.942Z,96433.97
2024-03-13T03:20:55.653Z,96448.25
2024-03-13T03:23:22.688Z,96427.81
2024-03-13T03:25:49.379Z,96441.22
2024-03-13T03:28:18.041Z,96440.44
2024-03-13T03:30:47.885Z,96444.50
2024-03-13T03:33:15.252Z,96443.19
2024-03-13T03:35:42.753Z,96440.19
2024-03-13T03:38:09.518Z,96441.81
2024-03-13T03:40:37.053Z,96438.38
2024-03-13T03:43:05.508Z,96449.38
2024-03-13T03:45:33.252Z,96454.75
2024-03-13T03:48:06.962Z,96446.69
2024-03-13T03:50:38.729Z,96453.66
2024-03-13T03:53:05.845Z,96446.44
2024-03-13T03:55:32.649Z,96449.06
2024-03-13T03:57:59.865Z,96441.84
2024-03-13T04:00:27.275Z,96435.97
2024-03-13T04:02:54.079Z,96440.25
2024-03-13T04:05:21.618Z,96448.56
2024-03-13T04:09:32.189Z,96449.69
2024-03-13T04:11:58.933Z,96409.06
2024-03-13T04:14:25.668Z,96454.75
2024-03-13T04:16:52.531Z,96452.59
2024-03-13T04:19:19.467Z,96446.09
2024-03-13T04:21:46.494Z,96454.19
2024-03-13T04:24:13.420Z,96425.22
2024-03-13T04:26:44.603Z,96428.94
2024-03-13T04:29:12.412Z,96455.84
2024-03-13T04:31:41.627Z,96429.31
2024-03-13T04:34:11.290Z,96422.59
2024-03-13T04:36:41.720Z,96447.47
2024-03-13T04:39:09.177Z,96425.53
2024-03-13T04:41:40.816Z,96442.94
2024-03-13T04:44:12.723Z,96420.13
2024-03-13T04:46:40.003Z,96443.19
2024-03-13T04:49:07.047Z,96437.34
2024-03-13T04:51:34.362Z,96392.91
2024-03-13T04:54:01.209Z,96442.66
2024-03-13T04:56:28.383Z,96428.47
2024-03-13T04:58:55.201Z,96453.09
2024-03-13T05:01:22.058Z,96444.78
2024-03-13T05:03:48.951Z,96447.22
2024-03-13T05:06:16.517Z,96446.38
2024-03-13T05:08:43.343Z,96415.38
2024-03-13T05:11:10.661Z,96446.09
2024-03-13T05:13:39.978Z,96442.38
2024-03-13T05:16:07.869Z,96456.31
2024-03-13T05:18:36.033Z,96460.06
2024-03-13T05:21:03.064Z,96449.06
2024-03-13T05:23:29.956Z,96417.78
2024-03-13T05:26:00.912Z,96459.34
2024-03-13T05:28:31.674Z,96452.63
2024-03-13T05:30:58.628Z,96406.13
2024-03-13T05:33:25.629Z,96445.41
2024-03-13T05:35:52.516Z,96436.13
2024-03-13T05:38:19.286Z,96411.44
2024-03-13T05:40:46.186Z,96433.53
2024-03-13T05:43:13.580Z,96466.09
2024-03-13T05:45:40.471Z,96433.22
2024-03-13T05:48:09.669Z,96448.44
2024-03-13T05:50:36.863Z,96467.47
2024-03-13T05:53:05.159Z,96446.53
2024-03-13T05:55:32.925Z,96474.69
2024-03-13T05:58:00.319Z,96455.88
2024-03-13T06:00:27.381Z,96466.09
2024-03-13T06:02:54.219Z,96465.59
2024-03-13T06:05:21.062Z,96474.13
2024-03-13T06:07:48.541Z,96474.94
2024-03-13T06:10:15.901Z,96462.91
2024-03-13T06:12:42.810Z,96466.31
2024-03-13T06:15:15.752Z,96480.03
2024-03-13T06:17:42.958Z,96460.72
2024-03-13T06:20:14.589Z,96474.06
2024-03-13T06:22:42.537Z,96468.56
2024-03-13T06:25:10.730Z,96476.31
2024-03-13T06:27:38.010Z,96484.06
2024-03-13T06:30:06.817Z,96425.44
2024-03-13T06:32:33.770Z,96427.84
2024-03-13T06:35:02.092Z,96440.97
2024-03-13T06:37:29.903Z,96488.19
2024-03-13T06:39:59.685Z,96446.13
2024-03-13T06:42:26.996Z,96485.47
2024-03-13T06:44:55.509Z,96481.75
2024-03-13T06:47:23.081Z,96507.72
2024-03-13T06:49:49.934Z,96493.50
2024-03-13T06:52:16.848Z,96486.78
2024-03-13T06:54:45.538Z,96479.28
2024-03-13T06:57:13.690Z,96470.69
2024-03-13T06:59:40.976Z,96508.47
2024-03-13T07:02:11.676Z,96485.94
2024-03-13T07:05:45.022Z,96490.78
2024-03-13T07:08:13.763Z,96496.34
2024-03-13T07:10:40.564Z,96496.03
2024-03-13T07:13:08.074Z,96494.13
2024-03-13T07:15:35.534Z,96498.16
2024-03-13T07:18:04.767Z,96498.94
2024-03-13T07:20:31.568Z,96498.13
2024-03-13T07:22:58.814Z,96498.38
2024-03-13T07:25:25.627Z,96508.31
2024-03-13T07:27:52.700Z,96513.94
2024-03-13T07:30:21.214Z,96499.72
2024-03-13T07:32:47.966Z,96500.81
2024-03-13T07:35:15.359Z,96509.72
2024-03-13T07:37:42.288Z,96514.56
2024-03-13T07:40:12.159Z,96520.72
2024-03-13T07:42:42.902Z,96522.63
2024-03-13T07:45:15.586Z,96520.13
2024-03-13T07:47:42.613Z,96497.53
2024-03-13T07:50:10.595Z,96505.81
2024-03-13T07:52:38.555Z,96516.25
2024-03-13T07:55:06.398Z,96501.78
2024-03-13T07:57:33.094Z,96510.88
2024-03-13T07:59:59.810Z,96512.72
2024-03-13T08:02:26.549Z,96513.78
2024-03-13T08:04:53.367Z,96510.53
2024-03-13T09:07:45.314Z,96528.31
2024-03-13T09:10:14.211Z,96516.28
2024-03-13T09:12:41.220Z,96529.69
2024-03-13T09:15:08.650Z,96529.91
2024-03-13T09:17:36.300Z,96529.34
2024-03-13T09:20:06.214Z,96519.13
2024-03-13T09:22:33.053Z,96535.16
2024-03-13T09:25:00.037Z,96521.47
2024-03-13T09:27:27.076Z,96524.41
2024-03-13T09:29:53.844Z,96533.97
2024-03-13T09:32:23.678Z,96534.28
2024-03-13T09:34:52.005Z,96544.72
2024-03-13T09:37:20.640Z,96544.13
2024-03-13T09:39:47.494Z,96535.28
2024-03-13T09:42:18.437Z,96543.31
2024-03-13T09:44:47.772Z,96550.91
2024-03-13T09:47:15.354Z,96538.28
2024-03-13T09:49:46.201Z,96543.88
2024-03-13T09:52:17.212Z,96538.88
2024-03-13T09:54:44.885Z,96536.97
2024-03-13T09:57:13.176Z,96540.38
2024-03-13T09:59:40.557Z,96532.16
2024-03-13T10:02:17.324Z,96540.84
2024-03-13T10:04:44.252Z,96547.03
2024-03-13T10:07:19.209Z,96546.09
2024-03-13T10:09:48.750Z,96543.34
2024-03-13T10:12:23.005Z,96544.16
2024-03-13T10:14:52.820Z,96542.75
2024-03-13T10:17:22.573Z,96540.06
2024-03-13T10:19:54.793Z,96540.13
2024-03-13T10:22:22.649Z,96545.88
2024-03-13T10:24:53.191Z,96541.38
2024-03-13T10:27:23.557Z,96546.75
2024-03-13T10:29:53.692Z,96554.56
2024-03-13T10:32:21.770Z,96555.13
2024-03-13T10:34:50.641Z,96551.41
2024-03-13T10:37:19.747Z,96545.22
2024-03-13T10:39:46.553Z,96548.94
2024-03-13T10:42:13.652Z,96539.78
2024-03-13T10:44:41.610Z,96546.19
2024-03-13T10:47:09.454Z,96541.81
2024-03-13T10:49:36.299Z,96532.63
2024-03-13T10:52:07.345Z,96530.66
2024-03-13T10:54:35.758Z,96538.47
2024-03-13T10:57:02.996Z,96534.66
2024-03-13T10:59:30.481Z,96538.16
2024-03-13T11:01:57.788Z,96534.66
2024-03-13T11:04:27.947Z,96528.25
2024-03-13T11:06:55.009Z,96533.78
2024-03-13T11:09:24.722Z,96526.31
2024-03-13T11:11:54.477Z,96527.91
2024-03-13T11:14:22.068Z,96528.34
2024-03-13T11:16:56.286Z,96527.56
2024-03-13T11:19:30.497Z,96524.50
2024-03-13T11:21:59.470Z,96534.53
2024-03-13T11:24:32.404Z,96535.63
2024-03-13T11:27:12.483Z,96535.63
2024-03-13T11:29:46.441Z,96521.13
2024-03-13T11:32:14.328Z,96537.25
2024-03-13T11:34:44.076Z,96532.16
2024-03-13T11:37:13.058Z,96520.34
2024-03-13T11:39:41.510Z,96528.66
2024-03-13T11:42:22.349Z,96525.44
2024-03-13T11:44:52.284Z,96536.16
2024-03-13T11:47:24.420Z,96530.69
2024-03-13T11:50:01.059Z,96527.50
2024-03-13T11:52:28.042Z,96521.50
2024-03-13T11:54:57.788Z,96529.47
2024-03-13T11:57:26.137Z,96524.06
2024-03-13T11:59:55.967Z,96524.59
2024-03-13T12:02:29.202Z,96510.09
2024-03-13T12:05:05.665Z,96509.56
2024-03-13T12:07:44.785Z,96511.38
2024-03-13T12:10:19.734Z,96526.78
2024-03-13T12:12:48.034Z,96519.22
2024-03-13T12:15:20.379Z,96516.06
2024-03-13T12:17:52.202Z,96515.47
2024-03-13T12:20:20.944Z,96521.22
2024-03-13T12:22:49.017Z,96526.19
2024-03-13T12:25:15.991Z,96530.47
2024-03-13T12:27:53.270Z,96533.47
2024-03-13T12:30:22.390Z,96531.84
2024-03-13T12:32:54.863Z,96520.56
2024-03-13T12:35:22.247Z,96527.28
2024-03-13T12:37:51.001Z,96516.72
2024-03-13T12:40:18.048Z,96529.91
2024-03-13T12:42:51.309Z,96513.38
2024-03-13T12:45:18.840Z,96536.44
2024-03-13T12:47:46.926Z,96525.94
2024-03-13T12:50:19.315Z,96528.31
2024-03-13T12:52:51.265Z,96522.16
2024-03-13T12:55:18.654Z,96526.75
2024-03-13T12:57:48.684Z,96516.63
2024-03-13T13:00:21.158Z,96533.81
2024-03-13T13:02:55.175Z,96530.97
2024-03-13T13:05:22.689Z,96534.41
2024-03-13T13:08:11.135Z,96530.81
2024-03-13T13:10:41.521Z,96530.56
2024-03-13T13:13:08.980Z,96535.38
2024-03-13T13:15:36.835Z,96530.47
2024-03-13T13:18:05.534Z,96535.38
2024-03-13T13:20:34.753Z,96532.59
2024-03-13T13:23:01.748Z,96531.50
2024-03-13T13:25:28.489Z,96536.09
2024-03-13T13:27:58.875Z,96532.91
2024-03-13T13:30:26.119Z,96529.75
2024-03-13T13:32:53.422Z,96540.75
2024-03-13T13:35:20.774Z,96538.56
2024-03-13T13:37:49.689Z,96532.72
2024-03-13T13:40:17.832Z,96539.13
2024-03-13T13:42:46.638Z,96535.38
2024-03-13T13:45:18.110Z,96535.41
2024-03-13T13:47:46.854Z,96535.72
2024-03-13T13:50:17.929Z,96540.81
2024-03-13T13:52:48.731Z,96543.81
2024-03-13T13:55:19.727Z,96533.44
2024-03-13T13:57:52.663Z,96553.16
2024-03-13T14:00:25.272Z,96556.78
2024-03-13T14:02:54.505Z,96546.34
2024-03-13T14:05:22.228Z,96541.28
2024-03-13T14:07:52.144Z,96542.63
2024-03-13T14:10:20.151Z,96552.13
2024-03-13T14:12:49.002Z,96546.88
2024-03-13T14:15:19.449Z,96555.22
2024-03-13T14:17:47.162Z,96560.09
2024-03-13T14:20:19.861Z,96562.31
2024-03-13T14:22:50.557Z,96559.91
2024-03-13T14:25:17.287Z,96557.19
2024-03-13T14:27:44.016Z,96560.69
2024-03-13T14:30:11.083Z,96573.91
2024-03-13T14:32:38.338Z,96583.88
2024-03-13T14:35:08.565Z,96573.38
2024-03-13T14:37:37.223Z,96549.56
2024-03-13T14:40:12.920Z,96583.72
2024-03-13T14:42:40.094Z,96587.50
2024-03-13T14:45:10.475Z,96592.59
2024-03-13T14:47:37.961Z,96589.66
2024-03-13T14:50:05.529Z,96589.72
2024-03-13T14:52:33.771Z,96581.91
2024-03-13T14:55:00.532Z,96590.22
2024-03-13T14:57:30.333Z,96584.59
2024-03-13T14:59:57.218Z,96589.97
2024-03-13T15:02:25.622Z,96566.72
2024-03-13T15:04:54.091Z,96591.63
2024-03-13T15:07:20.961Z,96590.59
2024-03-13T15:09:47.739Z,96601.91
2024-03-13T15:12:16.272Z,96600.81
2024-03-13T15:14:45.133Z,96605.16
2024-03-13T15:17:14.504Z,96610.25
2024-03-13T15:19:45.657Z,96604.09
2024-03-13T15:22:15.561Z,96611.09
2024-03-13T15:24:44.379Z,96609.50
2024-03-13T15:27:12.763Z,96610.59
2024-03-13T15:29:41.053Z,96617.59
2024-03-13T15:32:08.066Z,96609.53
2024-03-13T15:34:34.921Z,96610.59
2024-03-13T15:37:02.061Z,96603.13
2024-03-13T15:39:29.144Z,96607.97
2024-03-13T15:41:56.235Z,96623.56
2024-03-13T15:44:23.623Z,96615.78
2024-03-13T15:46:51.690Z,96630.53
2024-03-13T15:49:18.688Z,96626.81
2024-03-13T15:51:48.027Z,96635.69
2024-03-13T15:54:16.232Z,96633.53
2024-03-13T15:56:43.267Z,96632.19
2024-03-13T15:59:12.837Z,96631.44
2024-03-13T16:01:39.874Z,96636.56
2024-03-13T16:04:06.896Z,96640.91
2024-03-13T16:06:33.838Z,96630.13
2024-03-13T16:09:12.737Z,96643.03
2024-03-13T16:11:43.291Z,96641.44
2024-03-13T16:14:11.770Z,96645.78
2024-03-13T16:16:38.917Z,96653.84
2024-03-13T16:19:06.700Z,96645.28
2024-03-13T16:21:33.897Z,96652.84
2024-03-13T16:24:00.755Z,96655.53
2024-03-13T16:26:27.997Z,96661.47
2024-03-13T16:28:55.210Z,96666.59
2024-03-13T16:31:23.222Z,96668.78
2024-03-13T16:33:53.136Z,96673.31
2024-03-13T16:36:23.227Z,96675.25
2024-03-13T16:38:50.740Z,96666.09
2024-03-13T16:41:18.332Z,96677.97
2024-03-13T16:43:45.020Z,96672.06
2024-03-13T16:46:11.847Z,96683.63
2024-03-13T16:48:40.027Z,96680.94
2024-03-13T16:51:07.126Z,96678.78
2024-03-13T16:53:37.252Z,96688.47
2024-03-13T16:56:04.267Z,96686.88
2024-03-13T16:58:31.285Z,96689.81
2024-03-13T17:00:58.424Z,96691.97
2024-03-13T17:03:25.374Z,96682.06
2024-03-13T17:05:52.617Z,96693.88
2024-03-13T17:08:19.677Z,96700.84
2024-03-13T17:10:49.383Z,96691.44
2024-03-13T17:13:16.707Z,96711.31
2024-03-13T17:15:44.976Z,96700.31
2024-03-13T17:18:12.339Z,96703.53
2024-03-13T17:20:39.368Z,96713.50
2024-03-13T17:23:06.221Z,96718.59
2024-03-13T17:25:33.214Z,96716.19
2024-03-13T17:28:00.251Z,96717.78
2024-03-13T17:30:36.595Z,96724.78
2024-03-13T17:33:04.427Z,96720.22
2024-03-13T17:35:31.598Z,96726.66
2024-03-13T17:37:58.438Z,96728.78
2024-03-13T17:40:25.140Z,96728.00
2024-03-13T17:42:51.900Z,96726.13
2024-03-13T17:45:19.062Z,96712.97
2024-03-13T17:47:48.060Z,96727.47
2024-03-13T17:50:15.348Z,96718.59
2024-03-13T17:52:42.135Z,96734.47
2024-03-13T17:55:08.983Z,96730.72
2024-03-13T17:57:35.814Z,96738.47
2024-03-13T18:00:03.373Z,96717.53
2024-03-13T18:02:30.234Z,96736.06
2024-03-13T18:04:56.953Z,96740.66
2024-03-13T18:07:28.703Z,96746.28
2024-03-13T18:09:56.413Z,96739.56
2024-03-13T18:12:24.577Z,96728.53
2024-03-13T18:14:54.444Z,96745.22
2024-03-13T18:17:23.197Z,96744.38
2024-03-13T18:19:50.392Z,96748.69
2024-03-13T18:22:19.493Z,96745.47
2024-03-13T18:24:46.480Z,96752.47
2024-03-13T18:27:13.712Z,96753.00
2024-03-13T18:29:40.612Z,96748.97
2024-03-13T18:32:07.443Z,96757.28
2024-03-13T18:34:34.545Z,96757.81
2024-03-13T18:37:01.439Z,96759.72
2024-03-13T18:39:28.442Z,96765.09
2024-03-13T18:41:55.604Z,96754.88
2024-03-13T18:44:25.952Z,96754.06
2024-03-13T18:46:53.094Z,96760.50
2024-03-13T18:49:19.946Z,96760.78
2024-03-13T18:51:48.353Z,96749.50
2024-03-13T18:54:15.883Z,96760.78
2024-03-13T18:56:42.964Z,96761.84
2024-03-13T18:59:10.936Z,96757.28
2024-03-13T19:01:37.796Z,96757.28
2024-03-13T19:04:05.505Z,96759.97
2024-03-13T19:06:34.469Z,96765.34
2024-03-13T19:09:01.614Z,96771.00
2024-03-13T19:11:28.789Z,96750.03
2024-03-13T19:13:55.679Z,96778.81
2024-03-13T19:16:22.484Z,96768.88
2024-03-13T19:18:53.219Z,96771.28
2024-03-13T19:21:20.765Z,96777.47
2024-03-13T19:23:51.005Z,96777.44
2024-03-13T19:26:17.995Z,96773.94
2024-03-13T19:28:47.137Z,96783.06
2024-03-13T19:31:20.085Z,96790.34
2024-03-13T19:33:54.012Z,96782.28
2024-03-13T19:36:20.966Z,96789.25
2024-03-13T19:38:47.729Z,96789.25
2024-03-13T19:41:15.336Z,96788.44
2024-03-13T19:43:42.081Z,96794.66
2024-03-13T19:46:09.678Z,96785.78
2024-03-13T19:48:36.656Z,96800.31
2024-03-13T19:51:04.323Z,96789.03
2024-03-13T19:53:31.254Z,96790.34
2024-03-13T19:55:58.774Z,96793.88
2024-03-13T19:58:25.632Z,96790.66
2024-03-13T20:00:52.459Z,96778.56
2024-03-13T20:03:19.445Z,96801.94
2024-03-13T20:05:46.498Z,96793.31
2024-03-13T20:08:14.610Z,96806.75
2024-03-13T20:10:41.488Z,96805.69
2024-03-13T20:13:08.783Z,96803.00
2024-03-13T20:15:36.160Z,96791.97
2024-03-13T20:18:03.617Z,96804.34
2024-03-13T20:20:36.080Z,96796.28
2024-03-13T20:23:06.159Z,96804.59
2024-03-13T20:25:33.132Z,96800.03
2024-03-13T20:28:00.445Z,96809.19
2024-03-13T20:30:27.369Z,96802.44
2024-03-13T20:32:54.251Z,96790.66
2024-03-13T20:35:21.039Z,96808.91
2024-03-13T20:37:47.749Z,96812.97
2024-03-13T20:40:14.725Z,96811.34
2024-03-13T20:42:43.190Z,96808.66
2024-03-13T20:45:10.869Z,96811.06
2024-03-13T20:47:38.804Z,96812.66
2024-03-13T20:50:08.450Z,96796.28
2024-03-13T20:52:38.977Z,96814.56
2024-03-13T20:55:07.542Z,96803.53
2024-03-13T20:57:34.491Z,96806.22
2024-03-13T21:00:01.552Z,96804.59
2024-03-13T21:02:32.605Z,96810.81
2024-03-13T21:04:59.411Z,96812.69
2024-03-13T21:07:26.297Z,96814.28
2024-03-13T21:09:54.528Z,96814.56
2024-03-13T21:12:21.300Z,96806.50
2024-03-13T21:14:48.232Z,96817.00
2024-03-13T21:17:16.790Z,96811.06
2024-03-13T21:19:46.904Z,96814.28
2024-03-13T21:22:13.739Z,96821.53
2024-03-13T21:24:41.086Z,96808.38
2024-03-13T21:27:07.914Z,96811.59
2024-03-13T21:29:35.348Z,96807.28
2024-03-13T21:32:02.060Z,96819.09
2024-03-13T21:34:34.866Z,96808.09
2024-03-13T21:37:05.598Z,96814.84
2024-03-13T21:39:32.450Z,96802.44
2024-03-13T21:41:59.373Z,96803.25
2024-03-13T21:44:26.150Z,96810.00
2024-03-13T21:46:53.159Z,96813.47
2024-03-13T21:49:19.936Z,96813.47
2024-03-13T21:51:46.873Z,96816.44
2024-03-13T21:54:13.654Z,96813.75
2024-03-13T21:56:42.262Z,96817.78
2024-03-13T21:59:09.749Z,96815.66
2024-03-13T22:01:36.605Z,96816.16
2024-03-13T22:04:03.756Z,96815.09
2024-03-13T22:06:30.977Z,96805.94
2024-03-13T22:08:57.869Z,96821.81
2024-03-13T22:11:24.992Z,96817.53
2024-03-13T22:13:53.168Z,96822.91
2024-03-13T22:16:19.981Z,96804.59
2024-03-13T22:18:48.460Z,96816.97
2024-03-13T22:21:15.456Z,96823.97
2024-03-13T22:23:42.185Z,96814.56
2024-03-13T22:26:08.960Z,96826.66
2024-03-13T22:28:35.797Z,96821.81
2024-03-13T22:31:02.526Z,96828.00
2024-03-13T22:33:29.317Z,96832.03
2024-03-13T22:35:56.244Z,96827.75
2024-03-13T22:38:23.014Z,96816.44
2024-03-13T22:40:49.794Z,96831.50
2024-03-13T22:43:16.607Z,96833.91
2024-03-13T22:45:43.349Z,96810.00
2024-03-13T22:48:10.320Z,96812.13
2024-03-13T22:50:37.128Z,96840.66
2024-03-13T22:53:04.893Z,96836.88
2024-03-13T22:55:31.773Z,96835.78
2024-03-13T22:57:58.587Z,96842.78
2024-03-13T23:00:25.478Z,96848.19
2024-03-13T23:02:53.035Z,96840.91
2024-03-13T23:05:20.019Z,96832.03
2024-03-13T23:07:53.247Z,96842.78
2024-03-13T23:10:23.676Z,96840.09
2024-03-13T23:12:50.495Z,96837.16
2024-03-13T23:15:17.319Z,96834.47
2024-03-13T23:17:44.476Z,96838.75
2024-03-13T23:20:15.028Z,96841.72
2024-03-13T23:22:42.723Z,96844.41
2024-03-13T23:25:12.881Z,96841.16
2024-03-13T23:27:40.141Z,96826.13
2024-03-13T23:30:11.017Z,96850.84
2024-03-13T23:32:38.065Z,96845.22
2024-03-13T23:35:08.414Z,96844.13
2024-03-13T23:37:35.880Z,96851.13
2024-03-13T23:40:07.121Z,96854.63
2024-03-13T23:42:44.526Z,96855.19
2024-03-13T23:45:15.915Z,96853.56
2024-03-13T23:47:46.333Z,96862.69
2024-03-13T23:50:17.155Z,96844.66
2024-03-13T23:52:46.815Z,96852.50
2024-03-13T23:55:13.878Z,96837.41
2024-03-13T23:57:43.745Z,96849.25
